Time;durP1;ratioP1;P1;durP2;ratioP2;P2;SDS_P1;SDS_P2;PMS_P1;PMS_P2;Temp;Humidity;BMP_temperature;BMP_pressure;BME280_temperature;BME280_humidity;BME280_pressure;Samples;Min_cycle;Max_cycle;Signal;HPM_P1;HPM_P2
2022/08/06 00:00:52;;;;;;;12.02;4.10;;;;;;;22.37;nan;-24438.34;5031110;28;20233;-76
2022/08/06 00:03:18;;;;;;;6.15;3.88;;;;;;;22.77;nan;-24449.28;5031000;28;20229;-75
2022/08/06 00:05:43;;;;;;;7.20;4.20;;;;;;;22.77;nan;-24449.41;5030936;28;20509;-76
2022/08/06 00:08:09;;;;;;;6.38;4.43;;;;;;;22.82;nan;-24450.81;5030303;28;20549;-76
2022/08/06 00:10:34;;;;;;;6.53;4.10;;;;;;;22.62;nan;-24445.25;5030490;28;20646;-76
2022/08/06 00:13:00;;;;;;;7.80;3.97;;;;;;;22.88;nan;-24452.31;5030806;28;20211;-75
2022/08/06 00:15:26;;;;;;;4.93;3.88;;;;;;;22.88;nan;-24452.47;5030464;28;20174;-76
2022/08/06 00:17:51;;;;;;;8.20;3.90;;;;;;;22.57;nan;-24443.88;5030905;28;20525;-76
2022/08/06 00:20:17;;;;;;;6.90;4.18;;;;;;;22.58;nan;-24444.03;5029872;28;20179;-75
2022/08/06 00:22:42;;;;;;;7.10;4.38;;;;;;;22.61;nan;-24445.00;5030838;28;20202;-75
2022/08/06 00:25:10;;;;;;;6.25;3.75;;;;;;;22.88;nan;-24452.47;5030490;28;20182;-75
2022/08/06 00:27:37;;;;;;;5.65;3.92;;;;;;;23.01;nan;-24455.78;5030851;28;20194;-75
2022/08/06 00:30:04;;;;;;;5.63;3.88;;;;;;;23.00;nan;-24455.63;5029983;28;20258;-76
2022/08/06 00:32:30;;;;;;;5.95;4.07;;;;;;;22.65;nan;-24446.09;5029716;28;20175;-76
2022/08/06 00:34:55;;;;;;;5.55;3.75;;;;;;;22.63;nan;-24445.41;5030207;28;20183;-76
2022/08/06 00:37:21;;;;;;;5.90;3.72;;;;;;;22.59;nan;-24444.44;5030422;28;20623;-75
2022/08/06 00:39:46;;;;;;;5.15;3.97;;;;;;;22.30;nan;-24436.56;5031002;28;20532;-75
2022/08/06 00:42:12;;;;;;;6.95;4.80;;;;;;;22.49;nan;-24441.66;5029048;28;20171;-75
2022/08/06 00:44:37;;;;;;;7.00;4.22;;;;;;;22.40;nan;-24439.19;5028110;28;20199;-75
2022/08/06 00:47:03;;;;;;;6.90;3.95;;;;;;;22.25;nan;-24435.16;5029679;28;20210;-75
2022/08/06 00:49:28;;;;;;;6.32;4.10;;;;;;;21.93;nan;-24426.31;5029926;28;20657;-75
2022/08/06 00:51:54;;;;;;;6.72;4.35;;;;;;;22.14;nan;-24432.13;5031037;28;20187;-74
2022/08/06 00:54:21;;;;;;;5.20;3.95;;;;;;;21.95;nan;-24427.00;5029603;28;20966;-75
2022/08/06 00:56:46;;;;;;;8.23;4.38;;;;;;;22.23;nan;-24434.63;5029845;28;20203;-76
2022/08/06 00:59:12;;;;;;;7.55;4.47;;;;;;;21.86;nan;-24424.38;5030182;28;20214;-75
2022/08/06 01:01:38;;;;;;;5.78;3.97;;;;;;;21.94;nan;-24426.59;5029925;28;20179;-75
2022/08/06 01:04:04;;;;;;;6.78;4.10;;;;;;;21.90;nan;-24425.63;5029830;28;20194;-76
2022/08/06 01:06:29;;;;;;;7.15;4.22;;;;;;;22.05;nan;-24429.63;5029878;28;20206;-75
2022/08/06 01:08:55;;;;;;;5.00;3.65;;;;;;;22.01;nan;-24428.53;5030651;28;20639;-76
2022/08/06 01:11:20;;;;;;;7.70;3.85;;;;;;;21.76;nan;-24421.75;5029516;28;20187;-75
2022/08/06 01:13:46;;;;;;;5.25;3.83;;;;;;;21.80;nan;-24422.84;5030078;28;20214;-76
2022/08/06 01:16:46;;;;;;;7.03;4.35;;;;;;;22.10;nan;-24430.88;5029622;28;20183;-76
2022/08/06 01:19:50;;;;;;;5.32;3.60;;;;;;;21.93;nan;-24426.44;5027280;28;20183;-76
2022/08/06 01:22:52;;;;;;;6.75;4.03;;;;;;;21.81;nan;-24423.13;5005578;28;20192;-76
2022/08/06 01:25:44;;;;;;;5.82;3.83;;;;;;;21.86;nan;-24424.50;5028181;28;20178;-75
2022/08/06 01:28:37;;;;;;;6.28;3.90;;;;;;;21.87;nan;-24424.66;5010663;28;20195;-75
2022/08/06 01:31:10;;;;;;;5.95;3.88;;;;;;;21.87;nan;-24424.66;5027244;28;20217;-75
2022/08/06 01:33:41;;;;;;;6.55;3.85;;;;;;;21.83;nan;-24423.69;5022922;28;20164;-75
2022/08/06 01:36:13;;;;;;;8.88;4.47;;;;;;;21.83;nan;-24423.69;5029450;28;20187;-76
2022/08/06 01:38:43;;;;;;;7.55;4.13;;;;;;;21.84;nan;-24423.94;5029585;28;20183;-76
2022/08/06 01:41:11;;;;;;;5.55;3.78;;;;;;;21.75;nan;-24421.47;5029268;28;20184;-75
2022/08/06 01:43:38;;;;;;;6.88;4.15;;;;;;;21.38;nan;-24411.34;5028863;28;20179;-75
2022/08/06 01:46:05;;;;;;;6.10;3.55;;;;;;;21.63;nan;-24418.00;5028972;28;20203;-75
2022/08/06 01:48:34;;;;;;;6.20;4.00;;;;;;;21.31;nan;-24409.41;5045076;28;20389;-76
2022/08/06 01:51:04;;;;;;;9.13;4.40;;;;;;;21.30;nan;-24409.00;5030312;28;20241;-75
2022/08/06 01:53:38;;;;;;;7.28;4.45;;;;;;;21.35;nan;-24410.50;5030136;28;20657;-74
2022/08/06 01:56:06;;;;;;;7.78;4.13;;;;;;;21.35;nan;-24410.50;5045191;28;20186;-75
2022/08/06 01:58:38;;;;;;;7.88;4.57;;;;;;;21.55;nan;-24416.06;5032636;28;20538;-75
2022/08/06 02:01:08;;;;;;;6.20;3.90;;;;;;;21.28;nan;-24408.44;5029391;28;20167;-76
2022/08/06 02:03:39;;;;;;;7.28;3.75;;;;;;;21.39;nan;-24411.63;5031540;28;20663;-75
2022/08/06 02:06:07;;;;;;;6.97;4.05;;;;;;;21.01;nan;-24401.09;5033007;28;20203;-75
2022/08/06 02:08:34;;;;;;;7.38;4.28;;;;;;;21.36;nan;-24410.66;5033159;28;20167;-75
2022/08/06 02:11:03;;;;;;;6.68;4.30;;;;;;;21.32;nan;-24409.53;5029250;28;20545;-76
2022/08/06 02:13:31;;;;;;;9.35;4.30;;;;;;;21.26;nan;-24407.88;5031495;28;20994;-75
2022/08/06 02:16:00;;;;;;;6.40;4.15;;;;;;;18.88;nan;-24342.56;5032904;28;20321;-75
2022/08/06 02:18:31;;;;;;;9.30;4.40;;;;;;;21.14;nan;-24404.84;5032163;28;20186;-75
2022/08/06 02:21:00;;;;;;;5.65;3.83;;;;;;;21.26;nan;-24407.88;5032611;28;20254;-75
2022/08/06 02:23:28;;;;;;;7.68;4.20;;;;;;;20.92;nan;-24398.59;5032061;28;20206;-75
2022/08/06 02:25:55;;;;;;;6.60;3.83;;;;;;;20.62;nan;-24390.53;5047457;28;20186;-76
2022/08/06 02:28:23;;;;;;;7.28;3.80;;;;;;;20.81;nan;-24395.66;5031634;28;20662;-75
2022/08/06 02:30:51;;;;;;;7.22;4.13;;;;;;;20.78;nan;-24394.84;5032354;28;20176;-75
2022/08/06 02:33:17;;;;;;;7.13;4.10;;;;;;;20.68;nan;-24392.19;5032987;28;20195;-75
2022/08/06 02:35:48;;;;;;;7.32;4.55;;;;;;;20.81;nan;-24395.66;5030542;28;20317;-75
2022/08/06 02:38:22;;;;;;;8.57;4.07;;;;;;;20.84;nan;-24396.50;5031671;28;20190;-75
2022/08/06 02:40:56;;;;;;;7.18;4.78;;;;;;;20.88;nan;-24397.47;5030862;28;20187;-75
2022/08/06 02:43:33;;;;;;;9.95;4.20;;;;;;;20.85;nan;-24396.78;5031746;28;20187;-76
2022/08/06 02:46:23;;;;;;;5.82;4.00;;;;;;;20.84;nan;-24396.50;5028529;28;20278;-76
2022/08/06 02:48:59;;;;;;;7.93;4.32;;;;;;;20.52;nan;-24387.63;5031651;28;20207;-75
2022/08/06 02:51:36;;;;;;;6.35;4.78;;;;;;;20.55;nan;-24388.59;5031572;28;20329;-75
2022/08/06 02:54:07;;;;;;;8.73;4.38;;;;;;;20.90;nan;-24398.03;5028641;28;20190;-75
2022/08/06 02:56:36;;;;;;;7.30;4.35;;;;;;;20.89;nan;-24397.75;5032156;28;20175;-74
2022/08/06 02:59:03;;;;;;;6.80;4.57;;;;;;;20.54;nan;-24388.19;5027313;28;20171;-75
2022/08/06 03:01:34;;;;;;;7.43;4.75;;;;;;;20.83;nan;-24396.09;5031769;28;20179;-76
2022/08/06 03:04:01;;;;;;;6.80;4.60;;;;;;;21.03;nan;-24401.78;5027950;28;20176;-76
2022/08/06 03:06:33;;;;;;;6.35;4.05;;;;;;;20.93;nan;-24399.00;5028985;28;20207;-75
2022/08/06 03:09:01;;;;;;;6.13;4.57;;;;;;;20.78;nan;-24394.69;5027852;28;20183;-75
2022/08/06 03:11:32;;;;;;;8.60;4.53;;;;;;;20.62;nan;-24390.41;5046716;28;20526;-75
2022/08/06 03:14:01;;;;;;;8.27;4.43;;;;;;;20.73;nan;-24393.59;5027606;28;20214;-75
2022/08/06 03:16:29;;;;;;;7.85;5.07;;;;;;;20.55;nan;-24388.59;5031024;28;20661;-75
2022/08/06 03:18:56;;;;;;;7.00;4.20;;;;;;;20.70;nan;-24392.63;5031790;28;20260;-75
2022/08/06 03:21:24;;;;;;;8.43;4.15;;;;;;;20.54;nan;-24388.31;5030993;28;20812;-75
2022/08/06 03:23:51;;;;;;;7.53;4.63;;;;;;;20.62;nan;-24390.41;5030380;28;20179;-75
2022/08/06 03:26:18;;;;;;;7.68;4.32;;;;;;;20.95;nan;-24399.56;5030892;28;20348;-75
2022/08/06 03:28:44;;;;;;;7.88;4.53;;;;;;;21.01;nan;-24401.22;5029529;28;20182;-75
2022/08/06 03:31:10;;;;;;;6.80;4.53;;;;;;;21.01;nan;-24401.22;5030534;28;20535;-75
2022/08/06 03:33:36;;;;;;;7.25;4.65;;;;;;;20.71;nan;-24392.91;5031257;28;20167;-75
2022/08/06 03:36:03;;;;;;;6.78;4.35;;;;;;;21.14;nan;-24404.69;5031193;28;20249;-75
2022/08/06 03:38:39;;;;;;;9.00;4.70;;;;;;;21.37;nan;-24410.94;5031293;28;20180;-76
2022/08/06 03:41:06;;;;;;;8.55;5.00;;;;;;;21.75;nan;-24421.47;5027967;28;20696;-74
2022/08/06 03:43:32;;;;;;;5.80;4.38;;;;;;;22.10;nan;-24430.88;5031354;28;20663;-76
2022/08/06 03:46:01;;;;;;;8.13;4.50;;;;;;;22.48;nan;-24441.53;5031259;28;20180;-75
2022/08/06 03:48:31;;;;;;;5.78;3.95;;;;;;;23.37;nan;-24465.72;5030687;28;20221;-75
2022/08/06 03:50:57;;;;;;;8.27;4.93;;;;;;;23.68;nan;-24474.16;5030868;28;20262;-75
2022/08/06 03:53:25;;;;;;;6.47;3.80;;;;;;;24.49;nan;-24496.22;5030719;28;20651;-75
2022/08/06 03:55:55;;;;;;;6.70;4.50;;;;;;;24.86;nan;-24506.41;5031026;28;20171;-75
2022/08/06 03:58:23;;;;;;;6.38;4.25;;;;;;;25.97;nan;-24536.56;5030226;28;22050;-75
2022/08/06 04:00:58;;;;;;;5.70;4.25;;;;;;;26.35;nan;-24547.00;5030865;28;20171;-75
2022/08/06 04:03:24;;;;;;;6.82;4.57;;;;;;;27.21;nan;-24570.19;5030211;28;20545;-74
2022/08/06 04:05:50;;;;;;;8.30;3.90;;;;;;;27.37;nan;-24574.44;5030630;28;20180;-75
2022/08/06 04:08:16;;;;;;;7.07;4.30;;;;;;;27.10;nan;-24567.31;5030068;28;20190;-76
2022/08/06 04:10:45;;;;;;;7.50;4.22;;;;;;;27.59;nan;-24580.47;5028574;28;20183;-75
2022/08/06 04:13:13;;;;;;;6.05;4.18;;;;;;;28.02;nan;-24592.25;5029803;28;20219;-75
2022/08/06 04:15:40;;;;;;;5.13;3.58;;;;;;;28.67;nan;-24609.75;5030604;28;20175;-75
2022/08/06 04:18:09;;;;;;;6.72;4.18;;;;;;;29.35;nan;-24628.22;5030306;28;20183;-75
2022/08/06 04:20:35;;;;;;;7.15;4.97;;;;;;;28.92;nan;-24616.47;5029385;28;20187;-76
2022/08/06 04:23:02;;;;;;;8.57;4.22;;;;;;;29.77;nan;-24639.53;5030536;28;20171;-75
2022/08/06 04:25:34;;;;;;;7.82;4.72;;;;;;;30.17;nan;-24650.31;5030264;28;20183;-76
2022/08/06 04:28:01;;;;;;;7.97;4.57;;;;;;;29.94;nan;-24643.91;5026829;28;20503;-75
2022/08/06 04:30:28;;;;;;;7.72;4.57;;;;;;;30.08;nan;-24647.72;5031414;28;20687;-76
2022/08/06 04:32:54;;;;;;;6.50;4.60;;;;;;;30.25;nan;-24652.50;5030621;28;20300;-75
2022/08/06 04:35:21;;;;;;;5.55;4.10;;;;;;;30.23;nan;-24651.94;5028524;28;20282;-75
2022/08/06 04:37:47;;;;;;;9.30;3.90;;;;;;;28.53;nan;-24605.94;5030136;28;20186;-75
2022/08/06 04:40:14;;;;;;;5.47;3.88;;;;;;;27.43;nan;-24576.22;5029506;28;20179;-75
2022/08/06 04:42:40;;;;;;;6.47;4.13;;;;;;;26.39;nan;-24547.97;5030277;28;20228;-75
2022/08/06 04:45:08;;;;;;;5.63;4.13;;;;;;;25.58;nan;-24525.97;5029173;28;20265;-74
2022/08/06 04:47:35;;;;;;;5.25;3.88;;;;;;;24.60;nan;-24499.38;5031176;28;20210;-75
2022/08/06 04:50:01;;;;;;;5.38;3.60;;;;;;;24.25;nan;-24489.59;5029858;28;20174;-75
2022/08/06 04:52:28;;;;;;;5.93;3.78;;;;;;;24.17;nan;-24487.69;5030194;28;20175;-75
2022/08/06 04:54:53;;;;;;;6.43;3.80;;;;;;;24.29;nan;-24490.84;5030180;28;20175;-74
2022/08/06 04:57:19;;;;;;;5.55;3.78;;;;;;;24.04;nan;-24483.94;5029105;28;20566;-74
2022/08/06 04:59:44;;;;;;;5.45;3.80;;;;;;;24.35;nan;-24492.34;5030697;28;20190;-75
2022/08/06 05:02:10;;;;;;;6.15;3.88;;;;;;;24.99;nan;-24509.84;5030230;28;20171;-75
2022/08/06 05:04:37;;;;;;;5.80;3.95;;;;;;;25.53;nan;-24524.72;5030390;28;20634;-75
2022/08/06 05:07:16;;;;;;;5.72;3.33;;;;;;;25.94;nan;-24535.72;5029799;28;20199;-75
2022/08/06 05:09:42;;;;;;;6.22;3.92;;;;;;;25.99;nan;-24536.97;5024329;28;20541;-75
2022/08/06 05:12:29;;;;;;;5.82;4.00;;;;;;;26.16;nan;-24541.63;5029672;28;20181;-75
2022/08/06 05:15:18;;;;;;;5.13;3.30;;;;;;;26.40;nan;-24548.09;5029261;28;20278;-75
2022/08/06 05:17:54;;;;;;;5.75;3.85;;;;;;;26.51;nan;-24551.25;5028880;28;20686;-76
2022/08/06 05:20:20;;;;;;;6.38;3.67;;;;;;;26.16;nan;-24541.78;5029554;28;20187;-74
2022/08/06 05:22:55;;;;;;;6.55;3.83;;;;;;;26.08;nan;-24539.44;5029976;28;20183;-75
2022/08/06 05:25:21;;;;;;;8.65;3.67;;;;;;;26.30;nan;-24545.47;5028547;28;20926;-75
2022/08/06 05:27:47;;;;;;;6.13;3.75;;;;;;;26.68;nan;-24555.78;5029579;28;20275;-75
2022/08/06 05:30:12;;;;;;;5.63;3.80;;;;;;;26.93;nan;-24562.50;5032256;28;20358;-75
2022/08/06 05:32:46;;;;;;;4.43;3.40;;;;;;;27.49;nan;-24577.88;5034150;28;20187;-75
2022/08/06 05:35:12;;;;;;;5.03;3.53;;;;;;;27.52;nan;-24578.56;5033419;28;20183;-74
2022/08/06 05:37:38;;;;;;;6.00;3.78;;;;;;;27.46;nan;-24577.03;5034173;28;20186;-75
2022/08/06 05:40:04;;;;;;;6.25;3.60;;;;;;;27.18;nan;-24569.50;5033276;28;20179;-75
2022/08/06 05:42:30;;;;;;;5.38;3.33;;;;;;;27.16;nan;-24568.94;5033219;28;20674;-75
2022/08/06 05:44:55;;;;;;;4.72;3.40;;;;;;;27.36;nan;-24574.31;5033076;28;20203;-75
2022/08/06 05:47:24;;;;;;;4.20;2.75;;;;;;;27.44;nan;-24576.34;5034123;28;20218;-75
2022/08/06 05:50:04;;;;;;;4.43;3.15;;;;;;;27.57;nan;-24579.91;5033007;28;20254;-75
2022/08/06 05:52:39;;;;;;;4.82;3.20;;;;;;;27.68;nan;-24582.94;5025895;28;20689;-75
2022/08/06 05:55:34;;;;;;;3.65;2.70;;;;;;;27.56;nan;-24579.66;5029723;28;20182;-75
2022/08/06 05:58:03;;;;;;;4.93;3.13;;;;;;;27.45;nan;-24576.63;5030004;28;20194;-75
2022/08/06 06:00:32;;;;;;;6.05;3.25;;;;;;;27.86;nan;-24587.88;5033048;28;20194;-75
2022/08/06 06:03:00;;;;;;;3.78;2.80;;;;;;;27.87;nan;-24588.13;5032821;28;20210;-75
2022/08/06 06:05:26;;;;;;;6.50;3.33;;;;;;;27.63;nan;-24581.56;5033741;28;20237;-75
2022/08/06 06:07:55;;;;;;;4.90;3.40;;;;;;;28.14;nan;-24595.25;5033195;28;20226;-76
2022/08/06 06:10:22;;;;;;;5.65;3.78;;;;;;;28.32;nan;-24600.19;5033009;28;20175;-76
2022/08/06 06:12:48;;;;;;;6.47;3.67;;;;;;;28.26;nan;-24598.53;5032566;28;20186;-75
2022/08/06 06:15:15;;;;;;;5.32;3.78;;;;;;;28.02;nan;-24592.25;5048062;28;20175;-75
2022/08/06 06:17:58;;;;;;;7.30;3.78;;;;;;;28.30;nan;-24599.78;5031991;28;20236;-75
2022/08/06 06:20:39;;;;;;;4.70;3.70;;;;;;;28.09;nan;-24594.16;5032043;28;20183;-75
2022/08/06 06:23:13;;;;;;;6.40;3.70;;;;;;;28.50;nan;-24605.25;5031987;28;20181;-75
2022/08/06 06:26:01;;;;;;;4.63;3.53;;;;;;;28.86;nan;-24614.97;5031690;28;20179;-75
2022/08/06 06:28:50;;;;;;;4.97;3.50;;;;;;;28.89;nan;-24615.78;5031828;28;20237;-75
2022/08/06 06:31:47;;;;;;;5.65;3.83;;;;;;;29.18;nan;-24623.56;5034812;28;20238;-75
2022/08/06 06:34:20;;;;;;;7.65;3.95;;;;;;;29.21;nan;-24624.38;5029417;28;20187;-75
2022/08/06 06:37:18;;;;;;;5.88;3.80;;;;;;;29.11;nan;-24621.53;5032984;28;20179;-75
2022/08/06 06:39:54;;;;;;;5.68;3.97;;;;;;;29.03;nan;-24619.34;5029832;28;20218;-75
2022/08/06 06:42:28;;;;;;;5.25;3.78;;;;;;;29.22;nan;-24624.53;5031250;28;20257;-75
2022/08/06 06:45:07;;;;;;;5.35;3.45;;;;;;;29.37;nan;-24628.75;5032120;28;20171;-75
2022/08/06 06:47:52;;;;;;;5.47;3.80;;;;;;;29.50;nan;-24632.19;5032075;28;20275;-75
2022/08/06 06:50:22;;;;;;;5.32;3.75;;;;;;;29.30;nan;-24626.72;5031310;28;20190;-75
2022/08/06 06:52:51;;;;;;;4.97;3.72;;;;;;;29.37;nan;-24628.75;5031851;28;20543;-75
2022/08/06 06:55:16;;;;;;;6.57;4.07;;;;;;;29.81;nan;-24640.50;5031002;28;20258;-75
2022/08/06 06:57:46;;;;;;;7.78;4.13;;;;;;;29.88;nan;-24642.41;5032675;28;20325;-75
2022/08/06 07:00:12;;;;;;;6.63;4.32;;;;;;;30.08;nan;-24647.88;5031573;28;20175;-75
2022/08/06 07:02:40;;;;;;;5.97;3.60;;;;;;;30.12;nan;-24648.94;5031865;28;20206;-74
2022/08/06 07:05:09;;;;;;;5.50;3.80;;;;;;;30.52;nan;-24659.59;5032085;28;20233;-75
2022/08/06 07:07:38;;;;;;;6.65;3.90;;;;;;;30.69;nan;-24664.34;5030793;28;20202;-75
2022/08/06 07:10:07;;;;;;;8.80;4.88;;;;;;;30.54;nan;-24660.25;5031596;28;20190;-75
2022/08/06 07:12:34;;;;;;;5.50;4.03;;;;;;;29.98;nan;-24645.00;5030636;28;20697;-75
2022/08/06 07:15:04;;;;;;;4.65;3.60;;;;;;;30.56;nan;-24660.81;5030396;28;20229;-75
2022/08/06 07:17:32;;;;;;;6.40;4.07;;;;;;;30.38;nan;-24655.78;5030941;28;20262;-75
2022/08/06 07:20:01;;;;;;;8.48;4.22;;;;;;;30.16;nan;-24649.91;5032321;28;20178;-75
2022/08/06 07:22:28;;;;;;;6.45;4.10;;;;;;;30.14;nan;-24649.38;5030357;28;20249;-75
2022/08/06 07:25:01;;;;;;;7.90;4.07;;;;;;;30.21;nan;-24651.41;5031515;28;20540;-75
2022/08/06 07:27:32;;;;;;;7.05;3.97;;;;;;;31.13;nan;-24676.06;5029829;28;20190;-75
2022/08/06 07:29:59;;;;;;;6.20;4.00;;;;;;;31.38;nan;-24682.88;5029477;28;20698;-75
2022/08/06 07:32:25;;;;;;;5.90;3.88;;;;;;;31.68;nan;-24690.75;5030669;28;20210;-75
2022/08/06 07:34:52;;;;;;;8.98;4.10;;;;;;;31.72;nan;-24691.84;5031070;28;20586;-75
2022/08/06 07:37:21;;;;;;;6.10;4.07;;;;;;;31.41;nan;-24683.69;5030623;28;20182;-74
2022/08/06 07:39:49;;;;;;;7.05;4.60;;;;;;;31.41;nan;-24683.69;5031214;28;20244;-74
2022/08/06 07:42:16;;;;;;;5.78;3.97;;;;;;;31.41;nan;-24683.69;5029940;28;20718;-75
2022/08/06 07:44:52;;;;;;;6.32;4.15;;;;;;;31.64;nan;-24689.78;5030416;28;20642;-75
2022/08/06 07:47:21;;;;;;;6.32;4.20;;;;;;;32.18;nan;-24704.34;5029089;28;20198;-75
2022/08/06 07:49:52;;;;;;;6.15;4.13;;;;;;;32.13;nan;-24702.84;5028552;28;20182;-74
2022/08/06 07:52:18;;;;;;;8.95;4.35;;;;;;;32.43;nan;-24711.13;5030041;28;20174;-74
2022/08/06 07:54:45;;;;;;;6.05;4.47;;;;;;;32.67;nan;-24717.50;5029707;28;20650;-74
2022/08/06 07:57:12;;;;;;;7.50;4.50;;;;;;;32.55;nan;-24714.09;5031957;28;20676;-74
2022/08/06 07:59:39;;;;;;;6.30;4.18;;;;;;;32.59;nan;-24715.31;5031317;28;20257;-75
2022/08/06 08:02:05;;;;;;;6.22;4.13;;;;;;;32.42;nan;-24710.84;5030844;28;20189;-75
2022/08/06 08:07:15;;;;;;;5.95;4.25;;;;;;;31.28;nan;-24680.13;5028373;28;20639;-74
2022/08/06 08:09:45;;;;;;;6.18;3.90;;;;;;;31.40;nan;-24683.28;5031279;28;20618;-75
2022/08/06 08:12:16;;;;;;;7.60;4.25;;;;;;;32.06;nan;-24701.06;5030010;28;20179;-75
2022/08/06 08:14:47;;;;;;;5.95;4.20;;;;;;;32.35;nan;-24708.94;5030708;28;20219;-75
2022/08/06 08:17:13;;;;;;;4.88;3.65;;;;;;;32.33;nan;-24708.28;5030477;28;20185;-74
2022/08/06 08:19:40;;;;;;;6.28;4.05;;;;;;;32.52;nan;-24713.28;5031295;28;20186;-74
2022/08/06 08:22:10;;;;;;;6.05;3.80;;;;;;;32.75;nan;-24719.53;5031344;28;20206;-75
2022/08/06 08:24:38;;;;;;;4.63;3.58;;;;;;;32.89;nan;-24723.31;5014491;28;20171;-74
2022/08/06 08:27:08;;;;;;;6.38;4.30;;;;;;;32.97;nan;-24725.38;5030471;28;20303;-74
2022/08/06 08:29:34;;;;;;;4.60;3.60;;;;;;;33.39;nan;-24736.75;5024418;28;20182;-74
2022/08/06 08:32:00;;;;;;;5.45;3.80;;;;;;;33.36;nan;-24735.78;5031423;28;20240;-75
2022/08/06 08:34:26;;;;;;;5.28;3.90;;;;;;;33.20;nan;-24731.72;5032148;28;20189;-74
2022/08/06 08:36:51;;;;;;;5.55;3.92;;;;;;;33.44;nan;-24737.97;5031029;28;20171;-74
2022/08/06 08:39:17;;;;;;;5.15;3.60;;;;;;;33.45;nan;-24738.22;5030802;28;20672;-75
2022/08/06 08:41:52;;;;;;;5.90;3.92;;;;;;;33.58;nan;-24741.75;5029655;28;20171;-74
2022/08/06 08:44:25;;;;;;;5.53;4.10;;;;;;;33.53;nan;-24740.41;5031668;28;20657;-75
2022/08/06 08:46:51;;;;;;;5.07;3.65;;;;;;;33.52;nan;-24740.25;5031482;28;20552;-75
2022/08/06 08:49:27;;;;;;;5.88;3.80;;;;;;;33.86;nan;-24749.34;5032091;28;20184;-74
2022/08/06 08:51:55;;;;;;;4.47;3.33;;;;;;;34.00;nan;-24753.13;5031875;28;20253;-74
2022/08/06 08:54:24;;;;;;;6.78;4.03;;;;;;;33.88;nan;-24749.75;5031924;28;20201;-74
2022/08/06 08:56:50;;;;;;;4.93;3.60;;;;;;;33.72;nan;-24745.69;5031674;28;20181;-75
2022/08/06 08:59:16;;;;;;;5.30;3.50;;;;;;;33.65;nan;-24743.66;5032276;28;20175;-74
2022/08/06 09:01:42;;;;;;;5.97;3.33;;;;;;;33.54;nan;-24740.81;5031714;28;20179;-74
2022/08/06 09:04:08;;;;;;;5.35;3.60;;;;;;;33.08;nan;-24728.34;5032200;28;20163;-74
2022/08/06 09:06:36;;;;;;;4.35;3.35;;;;;;;33.15;nan;-24730.38;5035451;28;20680;-74
2022/08/06 09:09:04;;;;;;;4.53;3.25;;;;;;;33.56;nan;-24741.22;5034676;28;20174;-75
2022/08/06 09:11:31;;;;;;;4.85;3.42;;;;;;;33.94;nan;-24751.50;5034546;28;20624;-74
2022/08/06 09:14:00;;;;;;;5.88;3.38;;;;;;;34.14;nan;-24756.91;5035047;28;20280;-74
2022/08/06 09:16:27;;;;;;;5.13;3.42;;;;;;;34.17;nan;-24757.72;5035026;28;20174;-74
2022/08/06 09:18:53;;;;;;;4.63;3.33;;;;;;;34.05;nan;-24754.34;5034564;28;20195;-74
2022/08/06 09:21:18;;;;;;;5.30;3.45;;;;;;;32.88;nan;-24723.06;5033903;28;21410;-74
2022/08/06 09:23:44;;;;;;;5.53;3.53;;;;;;;32.80;nan;-24720.88;5035385;28;20170;-74
2022/08/06 09:26:09;;;;;;;5.10;3.67;;;;;;;32.97;nan;-24725.38;5034373;28;20641;-74
2022/08/06 09:28:37;;;;;;;4.53;3.42;;;;;;;33.21;nan;-24731.88;5035352;28;20647;-74
2022/08/06 09:31:07;;;;;;;4.15;3.08;;;;;;;33.40;nan;-24736.88;5033856;28;20278;-74
2022/08/06 09:33:42;;;;;;;4.53;3.22;;;;;;;33.03;nan;-24726.97;5042017;28;20186;-74
2022/08/06 09:36:16;;;;;;;4.50;3.42;;;;;;;33.19;nan;-24731.31;5034979;28;20609;-74
2022/08/06 09:38:50;;;;;;;3.67;3.00;;;;;;;33.58;nan;-24741.88;5034811;28;20536;-73
2022/08/06 09:41:18;;;;;;;5.45;3.50;;;;;;;33.63;nan;-24743.09;5035183;28;20201;-73
2022/08/06 09:43:48;;;;;;;5.60;3.42;;;;;;;33.67;nan;-24744.19;5035161;28;20701;-73
2022/08/06 09:46:15;;;;;;;4.10;3.15;;;;;;;33.94;nan;-24751.38;5035591;28;20175;-74
2022/08/06 09:49:00;;;;;;;4.20;3.10;;;;;;;33.83;nan;-24748.53;5035473;28;20644;-74
2022/08/06 09:51:26;;;;;;;4.53;3.08;;;;;;;33.79;nan;-24747.44;5035204;28;20182;-73
2022/08/06 09:53:54;;;;;;;4.93;3.40;;;;;;;33.26;nan;-24733.22;5035109;28;20316;-74
2022/08/06 09:56:20;;;;;;;3.95;2.95;;;;;;;32.92;nan;-24724.16;5034904;28;20614;-74
2022/08/06 09:58:46;;;;;;;4.78;3.20;;;;;;;33.43;nan;-24737.69;5035303;28;20179;-73
2022/08/06 10:01:17;;;;;;;5.40;3.33;;;;;;;33.29;nan;-24734.03;5035125;28;20163;-74
2022/08/06 10:03:43;;;;;;;5.10;3.15;;;;;;;34.12;nan;-24756.38;5035356;28;20175;-74
2022/08/06 10:06:11;;;;;;;5.78;3.40;;;;;;;34.38;nan;-24763.13;5036484;28;20669;-73
2022/08/06 10:08:38;;;;;;;5.25;3.65;;;;;;;35.02;nan;-24780.41;5034791;28;20167;-73
2022/08/06 10:11:04;;;;;;;4.40;3.05;;;;;;;34.93;nan;-24777.84;5035881;28;20580;-73
2022/08/06 10:13:32;;;;;;;4.43;3.63;;;;;;;35.59;nan;-24795.53;5036028;28;20305;-74
2022/08/06 10:16:00;;;;;;;4.93;3.47;;;;;;;35.11;nan;-24782.56;5033937;28;20618;-73
2022/08/06 10:18:34;;;;;;;4.35;3.22;;;;;;;35.16;nan;-24783.94;5032860;28;20183;-74
2022/08/06 10:21:17;;;;;;;5.05;3.58;;;;;;;35.77;nan;-24800.38;5033674;28;20629;-73
2022/08/06 10:23:47;;;;;;;3.90;3.00;;;;;;;35.65;nan;-24797.00;5017797;28;20183;-73
2022/08/06 10:26:18;;;;;;;3.65;2.90;;;;;;;34.95;nan;-24778.41;5034248;28;20159;-74
2022/08/06 10:28:45;;;;;;;5.20;3.45;;;;;;;34.62;nan;-24769.63;5033037;28;20186;-74
2022/08/06 10:31:13;;;;;;;4.88;3.50;;;;;;;34.59;nan;-24768.94;5033143;28;20178;-73
2022/08/06 10:33:55;;;;;;;4.10;3.15;;;;;;;35.22;nan;-24785.56;5034299;28;20174;-74
2022/08/06 10:36:34;;;;;;;5.55;3.50;;;;;;;35.75;nan;-24799.69;5033928;28;20197;-74
2022/08/06 10:39:00;;;;;;;5.78;3.92;;;;;;;36.21;nan;-24812.09;5034038;28;20185;-74
2022/08/06 10:41:27;;;;;;;4.60;3.47;;;;;;;36.54;nan;-24820.84;5034073;28;20171;-74
2022/08/06 10:43:54;;;;;;;4.63;3.65;;;;;;;36.45;nan;-24818.41;5033831;28;20622;-73
2022/08/06 10:46:20;;;;;;;9.13;3.83;;;;;;;37.04;nan;-24834.03;5033446;28;20187;-74
2022/08/06 10:48:46;;;;;;;4.10;3.28;;;;;;;37.24;nan;-24839.41;5034299;28;20533;-74
2022/08/06 10:51:13;;;;;;;5.10;3.70;;;;;;;37.55;nan;-24847.72;5034184;28;20171;-74
2022/08/06 10:53:44;;;;;;;4.03;3.42;;;;;;;37.34;nan;-24842.09;5033672;28;20193;-74
2022/08/06 10:56:15;;;;;;;8.25;4.03;;;;;;;37.62;nan;-24849.47;5049290;28;20631;-74
2022/08/06 10:58:41;;;;;;;5.03;3.70;;;;;;;37.65;nan;-24850.13;5033597;28;20526;-74
2022/08/06 11:01:22;;;;;;;6.05;3.78;;;;;;;37.39;nan;-24843.44;5033214;28;20163;-74
2022/08/06 11:03:47;;;;;;;4.43;3.25;;;;;;;37.39;nan;-24843.44;5033329;28;20257;-75
2022/08/06 11:06:34;;;;;;;4.78;3.42;;;;;;;37.21;nan;-24838.59;5048325;28;20233;-74
2022/08/06 11:09:21;;;;;;;4.95;3.55;;;;;;;37.35;nan;-24842.34;5032859;28;20626;-74
2022/08/06 11:11:46;;;;;;;8.35;3.60;;;;;;;37.43;nan;-24844.50;5033077;28;20204;-74
2022/08/06 11:14:14;;;;;;;4.82;3.33;;;;;;;36.56;nan;-24821.38;5032054;28;20377;-74
2022/08/06 11:16:39;;;;;;;4.65;3.50;;;;;;;37.15;nan;-24836.97;5032871;28;20189;-74
2022/08/06 11:19:10;;;;;;;6.72;4.13;;;;;;;37.28;nan;-24840.47;5033104;28;20543;-74
2022/08/06 11:21:43;;;;;;;5.65;3.25;;;;;;;37.01;nan;-24833.34;5032751;28;20175;-75
2022/08/06 11:24:09;;;;;;;4.78;3.72;;;;;;;36.82;nan;-24828.09;5032905;28;20167;-74
2022/08/06 11:26:39;;;;;;;4.78;3.22;;;;;;;36.51;nan;-24820.03;5032090;28;20194;-74
2022/08/06 11:29:10;;;;;;;5.28;3.70;;;;;;;36.25;nan;-24813.03;5031160;28;20177;-73
2022/08/06 11:31:45;;;;;;;5.97;3.60;;;;;;;36.18;nan;-24811.16;5032999;28;20181;-74
2022/08/06 11:34:16;;;;;;;4.53;3.42;;;;;;;35.97;nan;-24805.63;5032453;28;20208;-74
2022/08/06 11:36:50;;;;;;;4.88;3.38;;;;;;;36.18;nan;-24811.28;5033067;28;20182;-74
2022/08/06 11:39:20;;;;;;;6.75;4.03;;;;;;;36.11;nan;-24809.41;5032598;28;20166;-74
2022/08/06 11:41:58;;;;;;;6.10;3.60;;;;;;;35.78;nan;-24800.50;5032612;28;20170;-74
2022/08/06 11:44:32;;;;;;;6.25;3.90;;;;;;;36.04;nan;-24807.50;5032559;28;20710;-74
2022/08/06 11:47:12;;;;;;;6.05;4.28;;;;;;;36.08;nan;-24808.47;5031864;28;20594;-75
2022/08/06 11:49:44;;;;;;;8.40;4.18;;;;;;;36.12;nan;-24809.53;5032775;28;20170;-74
2022/08/06 11:52:30;;;;;;;8.40;3.92;;;;;;;36.42;nan;-24817.47;5032686;28;20163;-74
2022/08/06 11:55:01;;;;;;;5.28;3.53;;;;;;;36.53;nan;-24820.56;5021346;28;20181;-74
2022/08/06 11:57:27;;;;;;;5.63;3.83;;;;;;;36.35;nan;-24815.72;5031861;28;20231;-74